General Aviation Weather

Text Reports

Enter one or more of the following location identifiers separated by a space:

Zip Code, Four-Character ICAO or Three-Character IATA airport codes.

METAR - Aviation Routine Weather Report
KAPY - Zapata, Texas
Updated at 2:15 AM GMT on July 24, 2014 (9:15 PM CDT):
METAR KAPY 240215Z AUTO 11013G20KT 10SM CLR 33/19 A2993 RMK AO2 T03380191
TAF - Terminal Area Forecast
KAPY - Zapata, Texas
Updated at 2:15 AM GMT on July 24, 2014 (9:15 PM CDT):
No TAF is currently available for this location.
Decoded:
No decoded TAF is available.
PIREP - Pilot Weather Report
KAPY - Zapata, Texas
Updated at 2:15 AM GMT on July 24, 2014 (9:15 PM CDT):
No PIREP is currently available for this location.
AIRMET - Airmens Meteorological Information
KAPY - Zapata, Texas
Updated at 2:15 AM GMT on July 24, 2014 (9:15 PM CDT):
No AIRMET is currently available for this location.
SIGMET - Significant Meteorological Information
KAPY - Zapata, Texas
Updated at 2:15 AM GMT on July 24, 2014 (9:15 PM CDT):
No SIGMET is currently available for this location.
NOTAM - Notice to Airmen
KAPY - Zapata, Texas
Updated at 2:15 AM GMT on July 24, 2014 (9:15 PM CDT):
No NOTAM is currently available for this location.
Forecast Area
KAPY - Zapata, Texas
Updated at 2:15 AM GMT on July 24, 2014 (9:15 PM CDT):
No NOTAM is currently available for this location.
Aviation Weather Maps